• Join FlightAware (Why Join?)
  • Login
  • US Flag 
01:41AM EDT


 

Airport Tracker/Info


-or-


 

Live Flight TrackerFlight Track Log ✈ N16112 ✈ 26-Apr-2013 ✈ KMCO - KIAH

Flight Track Log - Related Links

Times and Time Zones

All times are in EDT time to prevent confusion due to time zone crossing. See the N16112 flight status page for this flight to view local times or setup timezone preferences in your user account.

Time Position Orientation Groundspeed Altitude Reporting Facility
EDT Latitude Longitude Course Direction KTS MPH feet Rate Location/Type
05:36PM 28.4333 -81.3167 270° West 160 184 400  Level Orlando TRACON
05:36PM 28.4667 -81.3167 360° North 167 192 1,800 1,980 Climbing Orlando TRACON
05:37PM 28.5333 -81.3167 360° North 224 258 3,600 2,220 Climbing Orlando TRACON
05:38PM 28.5833 -81.3500 330° Northwest 282 325 6,300 1,380 Climbing Orlando TRACON
05:39PM 28.4167 -81.6395 270° West  Level FlightAware Approximate
05:40PM 28.4167 -81.7526 270° West  Level FlightAware Approximate
05:40PM 28.5808 -81.5214 269° West 275 316 8,000  Level Jacksonville Center
05:41PM 28.4167 -81.8657 270° West  Level FlightAware Approximate
05:41PM 28.5797 -81.6089 269° West 275 316 9,900  Level Jacksonville Center
05:42PM 28.5681 -81.7036 262° West 288 331 10,900 1,020 Climbing Jacksonville Center
05:43PM 28.5461 -81.8172 258° West 350 403 12,000 1,320 Climbing Jacksonville Center
05:44PM 28.5261 -81.9333 259° West 363 418 13,600 1,620 Climbing Jacksonville Center
05:45PM 28.4978 -82.0611 256° West 376 433 15,300 1,560 Climbing Jacksonville Center
05:46PM 28.5006 -82.1769 272° West 364 419 16,800 1,380 Climbing Jacksonville Center
05:47PM 28.5303 -82.2900 287° West 364 419 18,100 1,200 Climbing Jacksonville Center
05:48PM 28.5600 -82.4056 286° West 375 432 19,200 900 Climbing Jacksonville Center
05:49PM 28.5897 -82.5214 286° West 375 432 20,000 720 Climbing Jacksonville Center
05:50PM 28.6192 -82.6419 286° West 392 451 20,700 840 Climbing Jacksonville Center
05:51PM 28.6694 -82.7553 297° West 399 459 21,700 900 Climbing Jacksonville Center
05:52PM 28.7550 -82.8214 326° Northwest 395 455 22,600 900 Climbing Jacksonville Center
05:53PM 28.8533 -82.9069 323° Northwest 401 461 23,500 900 Climbing Jacksonville Center
05:54PM 28.9472 -82.9850 324° Northwest 412 474 24,500 900 Climbing Jacksonville Center
05:55PM 29.0408 -83.0636 324° Northwest 412 474 25,400 900 Climbing Jacksonville Center
05:56PM 29.1286 -83.1397 323° Northwest 412 474 26,300 900 Climbing Jacksonville Center
05:57PM 29.2181 -83.2161 323° Northwest 412 474 27,300 900 Climbing Jacksonville Center
05:58PM 29.3078 -83.2903 324° Northwest 412 474 28,200 900 Climbing Jacksonville Center
05:59PM 29.3950 -83.3669 323° Northwest 407 468 29,200 900 Climbing Jacksonville Center
06:00PM 29.4803 -83.4414 323° Northwest 396 456 30,100 900 Climbing Jacksonville Center
06:01PM 29.5656 -83.5181 322° Northwest 391 450 31,100 900 Climbing Jacksonville Center
06:02PM 29.6339 -83.6142 309° West 385 443 32,000 900 Climbing Jacksonville Center
06:03PM 29.6961 -83.7103 307° West 385 443 32,900 900 Climbing Jacksonville Center
06:04PM 29.7622 -83.8067 308° West 385 443 33,900 900 Climbing Jacksonville Center
06:05PM 29.8242 -83.9078 305° West 385 443 34,800 900 Climbing Jacksonville Center
06:06PM 29.8669 -84.0158 295° West 379 436 35,700 600 Climbing Jacksonville Center
06:07PM 29.9056 -84.1217 293° West 368 423 36,000 120 Climbing Jacksonville Center
06:08PM 29.9483 -84.2325 294° West 368 423 36,000  Level Jacksonville Center
06:09PM 29.9911 -84.3483 293° West 380 437 36,000  Level Jacksonville Center
06:10PM 30.0333 -84.4642 293° West 391 450 36,000  Level Jacksonville Center
06:11PM 30.0778 -84.5825 293° West 396 456 36,000  Level Jacksonville Center
06:12PM 30.1200 -84.7008 292° West 396 456 36,000  Level Jacksonville Center
06:13PM 30.1644 -84.8169 294° West 396 456 36,000  Level Jacksonville Center
06:14PM 30.2064 -84.9331 293° West 396 456 36,000  Level Jacksonville Center
06:15PM 30.2461 -85.0494 292° West 396 456 36,000  Level Jacksonville Center
06:16PM 30.2900 -85.1658 294° West 396 456 36,000  Level Jacksonville Center
06:17PM 30.3339 -85.2847 293° West 396 456 36,000  Level Jacksonville Center
06:18PM 30.3733 -85.4014 291° West 396 456 36,000  Level Jacksonville Center
06:19PM 30.4169 -85.5158 294° West 396 456 36,000  Level Jacksonville Center
06:20PM 30.4583 -85.6325 292° West 396 456 36,000  Level Jacksonville Center
06:21PM 30.4997 -85.7494 292° West 396 456 36,000  Level Jacksonville Center
06:22PM 30.5408 -85.8664 292° West 396 456 36,000  Level Jacksonville Center
06:23PM 30.5819 -85.9811 293° West 396 456 36,000  Level Jacksonville Center
06:24PM 30.6169 -86.0861 291° West 396 456 36,000  Level Jacksonville Center
06:25PM 30.6578 -86.2033 292° West 396 456 36,000  Level Jacksonville Center
06:26PM 30.6986 -86.3183 292° West 396 456 36,000  Level Jacksonville Center
06:27PM 30.7414 -86.4333 293° West 396 456 36,000  Level Jacksonville Center
06:28PM 30.7797 -86.5508 291° West 396 456 36,000  Level Jacksonville Center
06:29PM 30.8261 -86.6808 293° West 396 456 36,000  Level Jacksonville Center
06:30PM 30.8247 -86.7919 269° West 386 444 36,000  Level Jacksonville Center
06:31PM 30.8144 -86.9222 265° West 392 451 36,000  Level Jacksonville Center
06:32PM 30.8061 -87.0475 266° West 392 451 36,000  Level Jacksonville Center
06:33PM 30.7997 -87.1778 267° West 404 465 36,000  Level Jacksonville Center
06:34PM 30.7911 -87.3081 266° West 404 465 36,000  Level Jacksonville Center
06:37PM 30.7736 -87.6086 266° West 400 460 36,000  Level Houston Center
06:38PM 30.7636 -87.7547 265° West 401 461 36,000  Level Houston Center
06:39PM 30.7556 -87.8839 266° West 402 463 36,000  Level Houston Center
06:40PM 30.7464 -88.0136 265° West 403 464 36,000  Level Houston Center
06:41PM 30.7375 -88.1433 265° West 404 465 36,000  Level Houston Center
06:42PM 30.7275 -88.2997 266° West 405 466 36,000  Level Houston Center
06:43PM 30.7022 -88.4267 257° West 406 467 36,000  Level Houston Center
06:44PM 30.6603 -88.5406 247° West 413 475 36,000  Level Houston Center
06:45PM 30.6183 -88.6653 249° West 413 475 36,000  Level Houston Center
06:46PM 30.5678 -88.8139 248° West 413 475 36,000  Level Houston Center
06:47PM 30.5233 -88.9375 247° West 414 476 36,000  Level Houston Center
06:48PM 30.4800 -89.0703 249° West 413 475 36,000  Level Houston Center
06:49PM 30.4364 -89.1933 248° West 413 475 36,000  Level Houston Center
06:50PM 30.3947 -89.3167 249° West 412 474 36,000  Level Houston Center
06:51PM 30.3508 -89.4389 247° West 411 473 36,000  Level Houston Center
06:52PM 30.3083 -89.5614 248° West 409 471 36,000  Level Houston Center
06:53PM 30.2639 -89.6842 247° West 408 470 36,000  Level Houston Center
06:54PM 30.2175 -89.8139 248° West 413 475 36,000  Level Houston Center
06:55PM 30.1747 -89.9386 248° West 416 479 36,000  Level Houston Center
06:56PM 30.1228 -90.0867 248° West 414 476 36,000  Level Houston Center
06:57PM 30.0797 -90.2083 248° West 411 473 36,000  Level Houston Center
06:59PM 30.0367 -90.3303 248° West 411 473 36,000  Level Houston Center
07:00PM 29.9928 -90.4522 247° West 413 475 36,000  Level Houston Center
07:01PM 29.9483 -90.5758 247° West 415 478 36,000  Level Houston Center
07:02PM 29.9042 -90.6972 247° West 413 475 36,000  Level Houston Center
07:03PM 29.8517 -90.8433 248° West 413 475 36,000  Level Houston Center
07:04PM 29.8078 -90.9653 247° West 411 473 36,000  Level Houston Center
07:05PM 29.7642 -91.0861 247° West 411 473 36,000  Level Houston Center
07:06PM 29.7192 -91.2069 247° West 411 473 36,000  Level Houston Center
07:07PM 29.6753 -91.3275 247° West 411 473 36,000 -60 Level Houston Center
07:08PM 29.6319 -91.4489 248° West 410 472 35,900  Descending Houston Center
07:09PM 29.5967 -91.5986 255° West 406 467 36,000  Climbing Houston Center
07:10PM 29.5775 -91.7272 260° West 404 465 36,000  Level Houston Center
07:11PM 29.5564 -91.8564 259° West 407 468 36,000  Level Houston Center
07:12PM 29.5339 -91.9842 259° West 409 471 36,000  Level Houston Center
07:13PM 29.5136 -92.1122 260° West 409 471 36,000  Level Houston Center
07:14PM 29.4925 -92.2419 259° West 411 473 36,000  Level Houston Center
07:15PM 29.4944 -92.3969 271° West 408 470 36,000  Level Houston Center
07:16PM 29.4978 -92.5264 272° West 406 467 36,000  Level Houston Center
07:17PM 29.5003 -92.6569 271° West 408 470 36,000 -180 Level Houston Center
07:19PM 29.5075 -92.9147 272° West 406 467 35,500 -660 Descending Houston Center
07:20PM 29.5086 -93.0419 271° West 401 461 34,000 -1,800 Descending Houston Center
07:21PM 29.5136 -93.1708 273° West 402 463 31,800 -2,280 Descending Houston Center
07:22PM 29.5164 -93.3317 271° West 415 478 29,300 -2,280 Descending Houston Center
07:23PM 29.5192 -93.4728 271° West 433 498 27,100 -2,280 Descending Houston Center
07:24PM 29.5211 -93.6169 271° West 446 513 24,700 -2,280 Descending Houston Center
07:25PM 29.5244 -93.7533 272° West 434 499 22,400 -2,340 Descending Houston Center
07:26PM 29.5264 -93.8853 271° West 419 482 19,900 -2,640 Descending Houston Center
07:27PM 29.5281 -93.9925 271° West 404 465 17,900 -2,160 Descending Houston Center
07:27PM 29.5283 -94.0144 271° West 409 471 17,700 -1,680 Descending Houston Center
07:28PM 29.5283 -94.0767 270° West 402 463 16,700 -2,280 Descending Houston Center
07:29PM 29.5297 -94.1433 271° West 404 465 15,400 -2,400 Descending Houston Center
07:29PM 29.5294 -94.2111 270° West 393 452 14,300 -2,280 Descending Houston Center
07:30PM 29.5322 -94.2756 273° West 386 444 13,100 -1,320 Descending Houston Center
07:30PM 29.5328 -94.3286 271° West 334 384 13,000 -120 Descending Houston Center
07:31PM 29.5481 -94.3778 290° West 341 392 13,000 -480 Level Houston Center
07:32PM 29.5875 -94.4728 296° West 332 382 12,200 -1,260 Descending Houston Center
07:33PM 29.6364 -94.5850 297° West 330 380 10,500 -1,080 Descending Houston Center
07:34PM 29.6742 -94.6742 296° West 319 367 10,000 -300 Descending Houston Center
07:35PM 29.7122 -94.7653 296° West 317 365 10,000  Level Houston Center
07:36PM 29.7522 -94.8575 297° West 321 369 10,000 -240 Level Houston Center
07:37PM 29.7881 -94.9417 296° West 301 346 9,600 -1,140 Descending Houston Center
07:38PM 29.8261 -95.0372 295° West 275 316 7,700 -1,740 Descending Houston Center
07:39PM 29.8636 -95.1242 296° West 287 330 6,100 -840 Descending Houston Center
07:40PM 29.8950 -95.1972 296° West 282 325 6,000 -60 Descending Houston Center
07:41PM 29.8981 -95.2911 272° West 258 297 6,000  Level Houston Center
07:42PM 29.8992 -95.3728 271° West 257 296 6,000  Level Houston Center
07:43PM 29.9003 -95.4589 271° West 256 295 6,000 -240 Level Houston Center
07:44PM 29.8994 -95.5367 269° West 227 261 5,600 -960 Descending Houston Center
07:45PM 29.9278 -95.5936 300° West 249 287 4,100 -1,200 Descending Houston Center
07:46PM 29.9900 -95.5878 North 227 261 3,200 -840 Descending Houston Center